createdAt,value
2019-06-07T00:02:01.079Z,99982.48
2019-06-07T00:04:31.068Z,99982.15
2019-06-07T00:07:03.747Z,99984.61
2019-06-07T00:09:33.774Z,99976.08
2019-06-07T00:12:03.967Z,99985.00
2019-06-07T00:14:33.978Z,99981.55
2019-06-07T00:17:04.185Z,99984.36
2019-06-07T00:19:34.195Z,99982.45
2019-06-07T00:22:16.569Z,99983.64
2019-06-07T00:24:36.053Z,99982.84
2019-06-07T00:27:06.111Z,99981.92
2019-06-07T00:29:36.239Z,99982.56
2019-06-07T00:32:06.327Z,99980.55
2019-06-07T00:34:36.327Z,99973.70
2019-06-07T00:37:07.103Z,99972.59
2019-06-07T00:39:37.204Z,99978.88
2019-06-07T00:42:07.314Z,99971.73
2019-06-07T00:44:37.359Z,99965.50
2019-06-07T00:47:07.346Z,99976.15
2019-06-07T00:49:41.467Z,99958.84
2019-06-07T00:52:09.139Z,99959.45
2019-06-07T00:54:39.301Z,99964.45
2019-06-07T00:57:09.312Z,99977.27
2019-06-07T00:59:39.388Z,99976.30
2019-06-07T01:02:09.387Z,99978.07
2019-06-07T01:04:39.471Z,99977.27
2019-06-07T01:07:09.493Z,99976.54
2019-06-07T01:09:40.626Z,99968.15
2019-06-07T01:12:10.618Z,99961.31
2019-06-07T01:14:40.669Z,99963.56
2019-06-07T01:17:27.601Z,99958.28
2019-06-07T01:19:50.992Z,99960.78
2019-06-07T01:22:23.412Z,99962.52
2019-06-07T01:24:52.754Z,99961.62
2019-06-07T01:27:25.446Z,99968.36
2019-06-07T01:29:54.573Z,99967.65
2019-06-07T01:32:27.106Z,99974.48
2019-06-07T01:34:56.423Z,99969.63
2019-06-07T01:37:27.974Z,99963.31
2019-06-07T01:39:58.207Z,99958.89
2019-06-07T01:42:30.483Z,99968.25
2019-06-07T01:45:00.049Z,99977.48
2019-06-07T01:47:32.186Z,99980.48
2019-06-07T01:50:01.871Z,99977.69
2019-06-07T01:52:32.890Z,99970.58
2019-06-07T01:55:02.895Z,99972.19
2019-06-07T01:57:45.578Z,99972.39
2019-06-07T02:00:07.614Z,99980.75
2019-06-07T02:02:37.632Z,99981.84
2019-06-07T02:05:08.962Z,99977.25
2019-06-07T02:07:39.007Z,99983.75
2019-06-07T02:10:10.659Z,99970.45
2019-06-07T02:12:43.547Z,99974.52
2019-06-07T02:15:13.252Z,99973.32
2019-06-07T02:17:43.352Z,99979.19
2019-06-07T02:20:13.627Z,99981.98
2019-06-07T02:22:43.678Z,99981.61
2019-06-07T02:27:45.535Z,99980.19
2019-06-07T02:30:40.299Z,99968.86
2019-06-07T02:32:48.301Z,99964.89
2019-06-07T02:35:18.389Z,99961.06
2019-06-07T02:37:48.438Z,99952.09
2019-06-07T02:40:18.794Z,99952.16
2019-06-07T02:42:48.908Z,99951.40
2019-06-07T02:45:20.027Z,99955.06
2019-06-07T02:47:51.740Z,99950.43
2019-06-07T02:50:25.594Z,99940.56
2019-06-07T02:52:55.358Z,99938.47
2019-06-07T02:55:29.107Z,99942.87
2019-06-07T02:57:57.084Z,99939.77
2019-06-07T03:01:05.484Z,99940.30
2019-06-07T03:03:18.497Z,99959.25
2019-06-07T03:05:48.687Z,99971.05
2019-06-07T03:08:18.729Z,99982.67
2019-06-07T03:10:50.375Z,100003.21
2019-06-07T03:13:22.735Z,100003.28
2019-06-07T03:15:54.447Z,100003.25
2019-06-07T03:18:42.346Z,100003.20
2019-06-07T03:21:13.974Z,99997.59
2019-06-07T03:23:45.192Z,99986.67
2019-06-07T03:26:17.733Z,99992.31
2019-06-07T03:28:47.803Z,99993.59
2019-06-07T03:31:17.817Z,99988.27
2019-06-07T03:33:47.807Z,99991.07
2019-06-07T03:36:23.824Z,99999.95
2019-06-07T03:38:51.432Z,100008.31
2019-06-07T03:41:21.492Z,100012.80
2019-06-07T03:43:51.492Z,100020.91
2019-06-07T03:46:21.547Z,100018.07
2019-06-07T03:48:51.633Z,100020.84
2019-06-07T03:51:25.322Z,100044.01
2019-06-07T03:53:53.411Z,100036.67
2019-06-07T03:56:23.438Z,100033.09
2019-06-07T03:58:53.518Z,100040.38
2019-06-07T04:01:23.605Z,100042.84
2019-06-07T04:03:53.695Z,100024.11
2019-06-07T04:06:24.935Z,100027.42
2019-06-07T04:08:54.965Z,100032.03
2019-06-07T04:11:24.969Z,100056.82
2019-06-07T04:13:54.981Z,100047.00
2019-06-07T04:16:25.019Z,100021.81
2019-06-07T04:18:55.027Z,100002.14
2019-06-07T04:21:25.049Z,100023.50
2019-06-07T04:23:55.177Z,100015.58
2019-06-07T04:26:25.172Z,100008.41
2019-06-07T04:29:31.808Z,100009.70
2019-06-07T04:31:26.935Z,100018.70
2019-06-07T04:33:57.089Z,100012.17
2019-06-07T04:36:41.831Z,100006.84
2019-06-07T04:39:00.996Z,100011.04
2019-06-07T04:41:33.661Z,100008.84
2019-06-07T04:44:04.925Z,100000.31
2019-06-07T04:46:39.866Z,99993.37
2019-06-07T04:49:12.155Z,100007.73
2019-06-07T04:51:43.817Z,100025.04
2019-06-07T04:54:13.834Z,100019.20
2019-06-07T04:56:44.759Z,100015.77
2019-06-07T05:00:00.377Z,100022.88
2019-06-07T05:01:46.707Z,100031.91
2019-06-07T05:04:16.736Z,100026.17
2019-06-07T05:06:46.789Z,100029.07
2019-06-07T05:09:16.793Z,100024.83
2019-06-07T05:11:46.872Z,100034.00
2019-06-07T05:14:17.070Z,100043.00
2019-06-07T05:16:47.158Z,100047.47
2019-06-07T05:19:17.378Z,100037.97
2019-06-07T05:22:02.615Z,100038.50
2019-06-07T05:24:19.118Z,100051.27
2019-06-07T05:26:49.119Z,100063.73
2019-06-07T05:29:19.223Z,100060.77
2019-06-07T05:31:49.718Z,100057.58
2019-06-07T05:34:19.886Z,100036.22
2019-06-07T05:37:10.381Z,100032.35
2019-06-07T05:39:21.599Z,100041.45
2019-06-07T05:41:51.685Z,100041.83
2019-06-07T05:44:21.738Z,100049.44
2019-06-07T05:46:51.741Z,100057.99
2019-06-07T05:49:21.757Z,100059.95
2019-06-07T05:51:51.775Z,100071.81
2019-06-07T05:54:21.819Z,100066.53
2019-06-07T05:56:51.854Z,100061.29
2019-06-07T05:59:21.879Z,100059.45
2019-06-07T06:01:59.830Z,100066.66
2019-06-07T06:04:23.650Z,100068.16
2019-06-07T06:06:53.666Z,100064.49
2019-06-07T06:09:23.672Z,100072.40
2019-06-07T06:12:01.726Z,100069.37
2019-06-07T06:14:25.458Z,100077.23
2019-06-07T06:16:55.514Z,100086.81
2019-06-07T06:19:25.563Z,100091.48
2019-06-07T06:21:55.566Z,100088.89
2019-06-07T06:24:25.616Z,100091.77
2019-06-07T06:27:14.911Z,100094.54
2019-06-07T06:29:27.334Z,100101.58
2019-06-07T06:32:40.470Z,100109.52
2019-06-07T06:34:29.086Z,100111.28
2019-06-07T06:36:59.137Z,100109.16
2019-06-07T06:39:29.137Z,100114.64
2019-06-07T06:42:03.736Z,100113.02
2019-06-07T06:44:30.879Z,100107.75
2019-06-07T06:47:00.953Z,100109.16
2019-06-07T06:49:32.035Z,100102.93
2019-06-07T06:52:02.115Z,100104.47
2019-06-07T06:54:40.679Z,100101.72
2019-06-07T06:57:19.180Z,100104.59
2019-06-07T07:05:19.564Z,100126.38
2019-06-07T07:07:52.626Z,100135.27
2019-06-07T07:10:40.673Z,100135.92
2019-06-07T07:13:10.894Z,100119.08
2019-06-07T07:15:42.826Z,100126.26
2019-06-07T07:18:12.962Z,100124.39
2019-06-07T07:20:45.036Z,100131.39
2019-06-07T07:23:14.868Z,100139.33
2019-06-07T07:25:49.544Z,100138.70
2019-06-07T07:28:16.647Z,100138.16
2019-06-07T07:30:55.262Z,100132.42
2019-06-07T07:33:24.991Z,100130.89
2019-06-07T07:36:15.812Z,100136.50
2019-06-07T07:38:26.945Z,100149.45
2019-06-07T07:41:12.239Z,100151.82
2019-06-07T07:43:29.787Z,100147.43
2019-06-07T07:46:03.147Z,100151.67
2019-06-07T07:48:31.749Z,100152.27
2019-06-07T07:51:03.337Z,100150.84
2019-06-07T07:53:48.583Z,100160.50
2019-06-07T07:56:05.903Z,100159.00
2019-06-07T07:58:36.322Z,100160.95
2019-06-07T08:01:10.752Z,100156.49
2019-06-07T08:03:38.392Z,100162.76
2019-06-07T08:06:08.447Z,100169.88
2019-06-07T08:08:38.510Z,100169.19
2019-06-07T08:11:08.574Z,100175.30
2019-06-07T08:13:38.845Z,100169.28
2019-06-07T08:16:15.028Z,100176.48
2019-06-07T08:18:40.644Z,100183.20
2019-06-07T08:21:24.863Z,100184.45
2019-06-07T08:23:42.360Z,100180.06
2019-06-07T08:26:12.362Z,100189.01
2019-06-07T08:28:42.441Z,100186.91
2019-06-07T08:31:12.446Z,100197.28
2019-06-07T08:33:42.450Z,100197.38
2019-06-07T08:36:21.873Z,100204.78
2019-06-07T08:38:48.338Z,100193.03
2019-06-07T08:41:17.634Z,100197.38
2019-06-07T08:43:49.216Z,100201.12
2019-06-07T08:46:19.515Z,100203.59
2019-06-07T08:48:49.997Z,100202.95
2019-06-07T08:51:21.298Z,100203.25
2019-06-07T08:54:08.672Z,100198.27
2019-06-07T08:56:23.053Z,100203.88
2019-06-07T08:59:00.367Z,100210.22
2019-06-07T09:01:27.846Z,100210.21
2019-06-07T09:04:02.650Z,100205.81
2019-06-07T09:09:03.536Z,100210.27
2019-06-07T09:11:33.359Z,100207.33
2019-06-07T09:14:08.776Z,100199.83
2019-06-07T09:16:35.708Z,100202.59
2019-06-07T09:19:10.696Z,100200.60
2019-06-07T09:21:37.750Z,100205.09
2019-06-07T09:24:11.366Z,100201.34
2019-06-07T09:26:39.658Z,100205.95
2019-06-07T09:29:11.937Z,100210.27
2019-06-07T09:31:52.844Z,100208.92
2019-06-07T09:34:15.155Z,100212.31
2019-06-07T09:36:47.190Z,100207.05
2019-06-07T09:39:17.252Z,100207.19
2019-06-07T09:41:50.065Z,100205.80
2019-06-07T09:44:25.788Z,100206.52
2019-06-07T09:47:12.951Z,100207.89
2019-06-07T09:49:32.074Z,100206.98
2019-06-07T09:51:55.760Z,100208.30
2019-06-07T09:55:03.371Z,100199.03
2019-06-07T09:57:00.329Z,100199.96
2019-06-07T09:59:31.159Z,100211.11
2019-06-07T10:02:03.608Z,100213.44
2019-06-07T10:04:33.208Z,100220.06
2019-06-07T10:07:10.548Z,100221.47
2019-06-07T10:10:09.840Z,100232.69
2019-06-07T10:12:08.525Z,100234.24
2019-06-07T10:14:38.647Z,100236.92
2019-06-07T10:17:09.199Z,100237.59
2019-06-07T10:19:39.371Z,100235.66
2019-06-07T10:22:09.737Z,100223.64
2019-06-07T10:24:39.849Z,100226.27
2019-06-07T10:27:10.964Z,100225.38
2019-06-07T10:29:41.041Z,100230.68
2019-06-07T10:32:11.512Z,100236.69
2019-06-07T10:34:41.660Z,100242.93
2019-06-07T10:37:15.487Z,100248.23
2019-06-07T10:39:48.723Z,100243.23
2019-06-07T10:42:15.128Z,100239.16
2019-06-07T10:44:45.154Z,100235.34
2019-06-07T10:47:15.149Z,100244.27
2019-06-07T10:49:45.180Z,100251.16
2019-06-07T10:52:15.193Z,100255.75
2019-06-07T10:54:45.188Z,100254.37
2019-06-07T10:57:16.206Z,100255.73
2019-06-07T10:59:46.483Z,100258.59
2019-06-07T11:02:16.549Z,100246.73
2019-06-07T11:04:46.584Z,100246.70
2019-06-07T11:07:16.581Z,100249.42
2019-06-07T11:09:46.581Z,100244.96
2019-06-07T11:12:16.581Z,100237.41
2019-06-07T11:14:46.582Z,100236.84
2019-06-07T11:17:17.877Z,100238.40
2019-06-07T11:19:47.989Z,100236.98
2019-06-07T11:22:18.589Z,100244.55
2019-06-07T11:24:48.595Z,100235.20
2019-06-07T11:27:19.159Z,100226.52
2019-06-07T11:29:49.324Z,100226.48
2019-06-07T11:32:19.379Z,100219.91
2019-06-07T11:34:50.463Z,100218.47
2019-06-07T11:37:20.478Z,100216.00
2019-06-07T11:39:50.469Z,100208.52
2019-06-07T11:42:20.557Z,100204.23
2019-06-07T11:44:56.778Z,100208.59
2019-06-07T11:47:22.263Z,100205.69
2019-06-07T11:49:52.312Z,100211.30
2019-06-07T11:52:22.293Z,100210.03
2019-06-07T11:54:52.284Z,100211.05
2019-06-07T11:57:22.270Z,100217.25
2019-06-07T11:59:52.292Z,100224.80
2019-06-07T12:02:22.267Z,100218.08
2019-06-07T12:04:52.305Z,100217.25
2019-06-07T12:07:22.302Z,100218.77
2019-06-07T12:09:56.461Z,100215.32
2019-06-07T12:12:24.043Z,100216.03
2019-06-07T12:14:54.045Z,100218.23
2019-06-07T12:17:25.119Z,100216.19
2019-06-07T12:19:55.153Z,100212.42
2019-06-07T12:22:25.237Z,100211.49
2019-06-07T12:24:55.248Z,100217.13
2019-06-07T12:27:25.323Z,100220.63
2019-06-07T12:29:55.378Z,100214.55
2019-06-07T12:32:25.386Z,100212.23
2019-06-07T12:34:55.394Z,100217.26
2019-06-07T12:37:42.010Z,100214.17
2019-06-07T12:39:57.134Z,100218.88
2019-06-07T12:42:27.117Z,100227.25
2019-06-07T12:44:57.240Z,100226.41
2019-06-07T12:47:27.220Z,100224.85
2019-06-07T12:49:57.214Z,100225.08
2019-06-07T12:52:27.208Z,100227.14
2019-06-07T12:54:57.223Z,100233.62
2019-06-07T12:57:27.223Z,100227.43
2019-06-07T12:59:57.234Z,100225.02
2019-06-07T13:02:27.252Z,100226.50
2019-06-07T13:04:57.232Z,100225.59
2019-06-07T13:07:27.975Z,100222.48
2019-06-07T13:09:58.126Z,100221.97
2019-06-07T13:12:28.271Z,100209.70
2019-06-07T13:14:59.376Z,100214.81
2019-06-07T13:17:29.361Z,100216.45
2019-06-07T13:19:59.416Z,100210.89
2019-06-07T13:22:29.407Z,100205.08
2019-06-07T13:24:59.729Z,100200.93
2019-06-07T13:27:33.367Z,100202.77
2019-06-07T13:30:09.172Z,100205.59
2019-06-07T13:32:33.242Z,100197.49
2019-06-07T13:35:04.170Z,100192.46
2019-06-07T13:37:34.237Z,100193.17
2019-06-07T13:40:06.594Z,100189.03
2019-06-07T13:42:36.572Z,100196.91
2019-06-07T13:45:08.821Z,100193.88
2019-06-07T13:47:38.992Z,100201.50
2019-06-07T13:50:10.524Z,100195.44
2019-06-07T13:52:42.110Z,100192.77
2019-06-07T13:55:15.180Z,100191.03
2019-06-07T13:57:45.189Z,100180.25
2019-06-07T14:00:16.422Z,100180.31
2019-06-07T14:02:46.483Z,100182.19
2019-06-07T14:05:16.617Z,100187.86
2019-06-07T14:07:46.640Z,100188.17
2019-06-07T14:10:16.705Z,100188.84
2019-06-07T14:12:46.775Z,100192.59
2019-06-07T14:15:18.385Z,100189.89
2019-06-07T14:17:48.526Z,100192.94
2019-06-07T14:20:18.697Z,100196.23
2019-06-07T14:22:54.004Z,100192.16
2019-06-07T14:25:23.018Z,100185.64
2019-06-07T14:27:54.207Z,100184.30
2019-06-07T14:30:25.906Z,100171.76
2019-06-07T14:32:56.074Z,100172.66
2019-06-07T14:35:26.721Z,100179.41
2019-06-07T14:37:56.959Z,100177.61
2019-06-07T14:40:27.915Z,100172.27
2019-06-07T14:42:58.102Z,100174.48
2019-06-07T14:45:28.178Z,100176.95
2019-06-07T14:47:58.235Z,100165.94
2019-06-07T14:50:28.390Z,100172.64
2019-06-07T14:52:58.405Z,100171.00
2019-06-07T14:55:28.973Z,100184.09
2019-06-07T14:57:59.006Z,100179.84
2019-06-07T15:00:41.128Z,100182.54
2019-06-07T15:03:11.476Z,100177.70
2019-06-07T15:05:41.491Z,100175.11
2019-06-07T15:08:12.722Z,100190.64
2019-06-07T15:10:42.708Z,100193.43
2019-06-07T15:13:12.765Z,100185.22
2019-06-07T15:15:42.892Z,100184.10
2019-06-07T15:18:12.907Z,100189.27
2019-06-07T15:20:42.911Z,100176.47
2019-06-07T15:23:12.899Z,100181.55
2019-06-07T15:25:42.909Z,100193.14
2019-06-07T15:28:12.985Z,100199.39
2019-06-07T15:30:43.010Z,100196.58
2019-06-07T15:33:13.373Z,100194.88
2019-06-07T15:35:43.361Z,100192.89
2019-06-07T15:38:13.422Z,100199.57
2019-06-07T15:40:43.428Z,100200.84
2019-06-07T15:43:13.498Z,100203.88
2019-06-07T15:45:43.492Z,100202.05
2019-06-07T15:48:13.503Z,100195.63
2019-06-07T15:50:43.601Z,100193.08
2019-06-07T15:53:13.640Z,100188.79
2019-06-07T15:55:45.805Z,100198.68
2019-06-07T15:58:15.987Z,100199.38
2019-06-07T16:00:45.983Z,100206.72
2019-06-07T16:03:15.991Z,100209.53
2019-06-07T16:05:45.993Z,100198.48
2019-06-07T16:08:15.970Z,100186.45
2019-06-07T16:10:46.029Z,100187.73
2019-06-07T16:13:16.023Z,100182.44
2019-06-07T16:15:46.015Z,100185.20
2019-06-07T16:18:16.074Z,100188.61
2019-06-07T16:20:46.065Z,100192.48
2019-06-07T16:23:16.126Z,100190.26
2019-06-07T16:25:46.110Z,100176.91
2019-06-07T16:28:16.117Z,100174.28
2019-06-07T16:30:46.141Z,100170.98
2019-06-07T16:33:16.181Z,100179.56
2019-06-07T16:35:46.181Z,100168.75
2019-06-07T16:38:16.213Z,100166.02
2019-06-07T16:40:46.212Z,100166.36
2019-06-07T16:43:18.206Z,100165.22
2019-06-07T16:45:49.064Z,100163.23
2019-06-07T16:48:19.358Z,100151.63
2019-06-07T16:50:49.430Z,100156.09
2019-06-07T16:53:19.425Z,100154.08
2019-06-07T16:55:49.435Z,100156.93
2019-06-07T16:58:19.436Z,100158.89
2019-06-07T17:00:49.558Z,100150.64
2019-06-07T17:03:19.548Z,100144.67
2019-06-07T17:05:50.561Z,100148.77
2019-06-07T17:08:20.726Z,100136.50
2019-06-07T17:10:50.702Z,100137.76
2019-06-07T17:13:33.009Z,100141.56
2019-06-07T17:15:52.458Z,100133.86
2019-06-07T17:18:22.472Z,100133.38
2019-06-07T17:20:52.477Z,100132.72
2019-06-07T17:23:22.488Z,100130.38
2019-06-07T17:25:52.484Z,100121.62
2019-06-07T17:28:22.474Z,100116.27
2019-06-07T17:30:52.626Z,100129.98
2019-06-07T17:33:22.677Z,100128.12
2019-06-07T17:35:52.770Z,100132.28
2019-06-07T17:38:22.799Z,100127.33
2019-06-07T17:40:52.821Z,100128.95
2019-06-07T17:43:22.863Z,100126.61
2019-06-07T17:45:52.858Z,100127.23
2019-06-07T17:48:24.057Z,100128.59
2019-06-07T17:50:55.144Z,100127.23
2019-06-07T17:53:25.178Z,100131.38
2019-06-07T17:55:55.172Z,100131.25
2019-06-07T17:58:25.280Z,100128.18
2019-06-07T18:00:55.326Z,100137.25
2019-06-07T18:03:25.367Z,100137.66
2019-06-07T18:05:55.488Z,100141.59
2019-06-07T18:08:25.649Z,100142.09
2019-06-07T18:10:56.726Z,100141.00
2019-06-07T18:13:26.800Z,100133.56
2019-06-07T18:15:59.471Z,100138.34
2019-06-07T18:18:28.645Z,100137.09
2019-06-07T18:20:58.629Z,100126.52
2019-06-07T18:23:28.668Z,100120.17
2019-06-07T18:25:58.895Z,100124.75
2019-06-07T18:28:28.941Z,100126.95
2019-06-07T18:30:59.021Z,100132.45
2019-06-07T18:33:29.049Z,100140.17
2019-06-07T18:35:59.506Z,100144.50
2019-06-07T18:38:29.517Z,100142.83
2019-06-07T18:40:59.703Z,100147.88
2019-06-07T18:43:29.686Z,100143.23
2019-06-07T18:45:59.700Z,100144.67
2019-06-07T18:48:29.722Z,100142.31
2019-06-07T18:50:59.762Z,100147.25
2019-06-07T18:53:29.788Z,100160.09
2019-06-07T18:55:59.790Z,100161.19
2019-06-07T18:58:29.858Z,100163.67
2019-06-07T19:00:59.853Z,100169.83
2019-06-07T19:03:29.908Z,100180.56
2019-06-07T19:05:59.893Z,100172.55
2019-06-07T19:08:29.935Z,100177.50
2019-06-07T19:10:59.947Z,100174.64
2019-06-07T19:13:29.964Z,100178.22
2019-06-07T19:16:00.018Z,100175.41
2019-06-07T19:18:30.060Z,100180.66
2019-06-07T19:21:00.735Z,100176.63
2019-06-07T19:23:30.963Z,100188.36
2019-06-07T19:26:00.979Z,100185.45
2019-06-07T19:28:31.009Z,100194.66
2019-06-07T19:31:01.343Z,100196.25
2019-06-07T19:33:31.522Z,100195.16
2019-06-07T19:36:01.885Z,100198.58
2019-06-07T19:38:32.058Z,100203.67
2019-06-07T19:41:16.544Z,100207.53
2019-06-07T19:43:33.765Z,100209.66
2019-06-07T19:46:03.762Z,100208.02
2019-06-07T19:48:33.768Z,100202.53
2019-06-07T19:51:03.839Z,100206.77
2019-06-07T19:53:33.836Z,100211.28
2019-06-07T19:56:03.925Z,100212.81
2019-06-07T19:58:33.932Z,100213.45
2019-06-07T20:21:13.994Z,100218.58
2019-06-07T20:23:44.007Z,100221.38
2019-06-07T20:26:13.996Z,100231.11
2019-06-07T20:28:43.980Z,100236.41
2019-06-07T20:31:13.995Z,100238.27
2019-06-07T20:33:44.267Z,100241.17
2019-06-07T20:36:14.306Z,100241.49
2019-06-07T20:38:45.964Z,100235.52
2019-06-07T20:41:15.982Z,100234.11
2019-06-07T20:43:46.060Z,100226.30
2019-06-07T20:46:16.171Z,100237.11
2019-06-07T20:48:46.190Z,100237.20
2019-06-07T20:51:16.169Z,100241.47
2019-06-07T20:53:46.306Z,100236.94
2019-06-07T20:56:16.288Z,100246.96
2019-06-07T20:58:46.330Z,100252.67
2019-06-07T21:01:16.389Z,100256.06
2019-06-07T21:03:46.437Z,100260.16
2019-06-07T21:06:16.410Z,100262.47
2019-06-07T21:08:46.552Z,100264.87
2019-06-07T21:11:16.537Z,100267.52
2019-06-07T21:13:46.602Z,100271.94
2019-06-07T21:16:16.658Z,100272.11
2019-06-07T21:18:46.657Z,100284.33
2019-06-07T21:21:16.717Z,100277.98
2019-06-07T21:23:48.355Z,100279.03
2019-06-07T21:26:18.422Z,100275.89
2019-06-07T21:28:48.474Z,100279.17
2019-06-07T21:31:20.130Z,100282.81
2019-06-07T21:33:50.231Z,100282.44
2019-06-07T21:36:20.222Z,100278.08
2019-06-07T21:38:50.421Z,100288.63
2019-06-07T21:41:20.499Z,100289.67
2019-06-07T21:43:50.589Z,100287.19
2019-06-07T21:46:20.989Z,100294.39
2019-06-07T21:48:51.079Z,100295.97
2019-06-07T21:51:21.087Z,100294.77
2019-06-07T21:53:51.093Z,100291.19
2019-06-07T21:56:21.103Z,100295.77
2019-06-07T21:58:51.165Z,100300.67
2019-06-07T22:01:22.167Z,100300.56
2019-06-07T22:03:52.252Z,100299.84
2019-06-07T22:06:22.372Z,100293.10
2019-06-07T22:08:52.548Z,100290.47
2019-06-07T22:11:22.597Z,100287.91
2019-06-07T22:13:52.649Z,100285.95
2019-06-07T22:16:28.935Z,100283.18
2019-06-07T22:18:54.327Z,100278.80
2019-06-07T22:21:24.365Z,100282.41
2019-06-07T22:23:54.374Z,100286.87
2019-06-07T22:26:24.365Z,100293.61
2019-06-07T22:28:54.369Z,100284.96
2019-06-07T22:31:24.376Z,100299.48
2019-06-07T22:33:54.448Z,100291.19
2019-06-07T22:36:24.461Z,100297.09
2019-06-07T22:38:54.476Z,100292.64
2019-06-07T22:41:24.561Z,100292.52
2019-06-07T22:43:54.610Z,100299.75
2019-06-07T22:46:36.985Z,100287.84
2019-06-07T22:48:57.494Z,100283.78
2019-06-07T22:51:27.478Z,100280.30
2019-06-07T22:53:57.526Z,100279.80
2019-06-07T22:56:38.179Z,100274.27
2019-06-07T22:59:11.921Z,100269.58
2019-06-07T23:01:39.880Z,100269.56
2019-06-07T23:04:10.465Z,100273.91
2019-06-07T23:06:40.564Z,100269.84
2019-06-07T23:09:10.858Z,100267.06
2019-06-07T23:11:40.848Z,100266.66
2019-06-07T23:14:11.190Z,100267.17
2019-06-07T23:16:54.882Z,100268.23
2019-06-07T23:19:13.808Z,100278.37
2019-06-07T23:21:43.942Z,100281.95
2019-06-07T23:24:14.203Z,100284.61
2019-06-07T23:26:44.254Z,100279.56
2019-06-07T23:29:14.561Z,100275.95
2019-06-07T23:31:44.543Z,100256.70
2019-06-07T23:34:14.729Z,100254.65
2019-06-07T23:36:44.735Z,100271.12
2019-06-07T23:39:15.643Z,100274.47
2019-06-07T23:41:45.622Z,100253.32
2019-06-07T23:44:15.685Z,100254.30
2019-06-07T23:46:45.681Z,100260.17
2019-06-07T23:49:15.715Z,100259.62
2019-06-07T23:51:45.705Z,100251.47
2019-06-07T23:54:15.741Z,100257.95
2019-06-07T23:56:45.716Z,100250.98
2019-06-07T23:59:16.125Z,100245.08
